^^
Grace C. Lehan Memorial Weather Station Historical Data
Daily Summary for November 9, 2021 Units:  Both    English   Metric
Daily Weekly Monthly Yearly
  High: Low: Average:
Temperature: 69.1 °F /  20.6 °C 37.6 °F /  3.1 °C 53.1 °F /  11.7 °C
Dew Point: 50.1 °F /  10.1 °C 36.1 °F /  2.3 °C 44.4 °F /  6.9 °C
Humidity: 95% 50% 75%
Wind Speed: 4.3mph /  6.9km/h - 0.4mph /  0.6km/h
Wind Gust: 11mph /  17.7km/h - -
Wind- - WSW
Pressure: 30.09 in /  1018.8 hPa 29.96 in /  1014.4 hPa -
Precipitation: 0.00 in /  0 mm    
 
 
Tabular Data for November 9, 2021
Time Temperature Dew Point Pressure Wind Wind Speed Wind Gust Humidity Rainfall Rate (Hourly) solar
00:04 43.5 °F /  6.4 °C 40.5 °F /  4.7 °C 30.08in /  1018.5hPa Calm     89% 0.00in /  0mm 0 W/m2
00:09 43.3 °F /  6.3 °C 40.3 °F /  4.6 °C 30.08in /  1018.5hPa Calm     89% 0.00in /  0mm 0 W/m2
00:14 43.2 °F /  6.2 °C 40.2 °F /  4.6 °C 30.08in /  1018.5hPa Calm     89% 0.00in /  0mm 0 W/m2
00:19 43 °F /  6.1 °C 40 °F /  4.4 °C 30.08in /  1018.5hPa Calm     89% 0.00in /  0mm 0 W/m2
00:24 42.8 °F /  6 °C 39.8 °F /  4.3 °C 30.08in /  1018.5hPa Calm     89% 0.00in /  0mm 0 W/m2
00:29 42.6 °F /  5.9 °C 39.7 °F /  4.3 °C 30.08in /  1018.5hPa Calm     89.2% 0.00in /  0mm 0 W/m2
00:34 42.5 °F /  5.8 °C 39.6 °F /  4.2 °C 30.08in /  1018.5hPa Calm     89.4% 0.00in /  0mm 0 W/m2
00:39 42.4 °F /  5.8 °C 39.7 °F /  4.3 °C 30.08in /  1018.5hPa Calm     90% 0.00in /  0mm 0 W/m2
00:44 42.3 °F /  5.7 °C 39.6 °F /  4.2 °C 30.08in /  1018.5hPa Calm     90% 0.00in /  0mm 0 W/m2
00:49 42.3 °F /  5.7 °C 39.7 °F /  4.3 °C 30.08in /  1018.5hPa Calm     90.5% 0.00in /  0mm 0 W/m2
00:54 42.4 °F /  5.8 °C 39.9 °F /  4.4 °C 30.08in /  1018.5hPa Calm     91% 0.00in /  0mm 0 W/m2
00:59 42.2 °F /  5.7 °C 39.6 °F /  4.2 °C 30.08in /  1018.5hPa Calm     90.3% 0.00in /  0mm 0 W/m2
01:04 42.1 °F /  5.6 °C 39.4 °F /  4.1 °C 30.08in /  1018.5hPa Calm     90.2% 0.00in /  0mm 0 W/m2
01:09 42 °F /  5.6 °C 39.6 °F /  4.2 °C 30.08in /  1018.5hPa Calm     91% 0.00in /  0mm 0 W/m2
01:14 41.9 °F /  5.5 °C 39.5 °F /  4.2 °C 30.08in /  1018.5hPa Calm     91% 0.00in /  0mm 0 W/m2
01:19 41.9 °F /  5.5 °C 39.5 °F /  4.2 °C 30.08in /  1018.5hPa Calm     91% 0.00in /  0mm 0 W/m2
01:24 41.9 °F /  5.5 °C 39.4 °F /  4.1 °C 30.08in /  1018.5hPa Calm     91% 0.00in /  0mm 0 W/m2
01:29 41.7 °F /  5.4 °C 39.3 °F /  4.1 °C 30.08in /  1018.5hPa Calm     91% 0.00in /  0mm 0 W/m2
01:34 41.5 °F /  5.3 °C 39.1 °F /  3.9 °C 30.08in /  1018.5hPa Calm     91% 0.00in /  0mm 0 W/m2
01:39 41.5 °F /  5.3 °C 39.2 °F /  4 °C 30.08in /  1018.5hPa Calm     91.3% 0.00in /  0mm 0 W/m2
01:44 41.7 °F /  5.4 °C 39.5 °F /  4.2 °C 30.07in /  1018.2hPa Calm     92% 0.00in /  0mm 0 W/m2
01:49 41.7 °F /  5.4 °C 39.6 °F /  4.2 °C 30.08in /  1018.5hPa Calm     92% 0.00in /  0mm 0 W/m2
01:54 41.6 °F /  5.3 °C 39.5 °F /  4.2 °C 30.08in /  1018.5hPa Calm     92% 0.00in /  0mm 0 W/m2
01:59 41.6 °F /  5.3 °C 39.5 °F /  4.2 °C 30.07in /  1018.2hPa Calm     92% 0.00in /  0mm 0 W/m2
02:04 41.6 °F /  5.3 °C 39.5 °F /  4.2 °C 30.07in /  1018.2hPa Calm     92% 0.00in /  0mm 0 W/m2
02:09 41.5 °F /  5.3 °C 39.4 °F /  4.1 °C 30.07in /  1018.2hPa Calm     92% 0.00in /  0mm 0 W/m2
02:14 41.4 °F /  5.2 °C 39.2 °F /  4 °C 30.07in /  1018.2hPa Calm     92% 0.00in /  0mm 0 W/m2
02:19 41.3 °F /  5.2 °C 39.2 °F /  4 °C 30.07in /  1018.2hPa Calm     92% 0.00in /  0mm 0 W/m2
02:24 41.2 °F /  5.1 °C 39.1 °F /  3.9 °C 30.07in /  1018.2hPa Calm     92% 0.00in /  0mm 0 W/m2
02:29 41.1 °F /  5.1 °C 39 °F /  3.9 °C 30.07in /  1018.2hPa Calm     92% 0.00in /  0mm 0 W/m2
02:34 41 °F /  5 °C 38.9 °F /  3.8 °C 30.06in /  1017.8hPa Calm     92% 0.00in /  0mm 0 W/m2
02:39 40.9 °F /  4.9 °C 38.7 °F /  3.7 °C 30.06in /  1017.8hPa Calm     92% 0.00in /  0mm 0 W/m2
02:44 40.8 °F /  4.9 °C 38.6 °F /  3.7 °C 30.06in /  1017.8hPa Calm     92% 0.00in /  0mm 0 W/m2
02:49 40.7 °F /  4.8 °C 38.6 °F /  3.7 °C 30.06in /  1017.8hPa Calm     92% 0.00in /  0mm 0 W/m2
02:54 40.7 °F /  4.8 °C 38.5 °F /  3.6 °C 30.06in /  1017.8hPa Calm     92% 0.00in /  0mm 0 W/m2
02:59 40.5 °F /  4.7 °C 38.4 °F /  3.6 °C 30.07in /  1018.2hPa Calm     92% 0.00in /  0mm 0 W/m2
03:04 40.3 °F /  4.6 °C 38.1 °F /  3.4 °C 30.07in /  1018.2hPa Calm     92% 0.00in /  0mm 0 W/m2
03:09 40 °F /  4.4 °C 37.9 °F /  3.3 °C 30.06in /  1017.8hPa Calm     92% 0.00in /  0mm 0 W/m2
03:14 39.8 °F /  4.3 °C 37.7 °F /  3.2 °C 30.06in /  1017.8hPa Calm     92% 0.00in /  0mm 0 W/m2
03:19 39.7 °F /  4.3 °C 37.5 °F /  3.1 °C 30.06in /  1017.8hPa Calm     92% 0.00in /  0mm 0 W/m2
03:24 39.6 °F /  4.2 °C 37.5 °F /  3.1 °C 30.06in /  1017.8hPa Calm     92% 0.00in /  0mm 0 W/m2
03:29 39.5 °F /  4.2 °C 37.4 °F /  3 °C 30.06in /  1017.8hPa Calm     92% 0.00in /  0mm 0 W/m2
03:34 39.4 °F /  4.1 °C 37.3 °F /  2.9 °C 30.06in /  1017.8hPa Calm     92% 0.00in /  0mm 0 W/m2
03:39 39.3 °F /  4.1 °C 37.1 °F /  2.8 °C 30.06in /  1017.8hPa Calm     92% 0.00in /  0mm 0 W/m2
03:44 39.2 °F /  4 °C 37 °F /  2.8 °C 30.06in /  1017.8hPa Calm     92% 0.00in /  0mm 0 W/m2
03:49 39.1 °F /  3.9 °C 37 °F /  2.8 °C 30.07in /  1018.2hPa Calm     92% 0.00in /  0mm 0 W/m2
03:54 39 °F /  3.9 °C 37.1 °F /  2.8 °C 30.06in /  1017.8hPa Calm     92.6% 0.00in /  0mm 0 W/m2
03:59 39 °F /  3.9 °C 37 °F /  2.8 °C 30.06in /  1017.8hPa Calm     92.4% 0.00in /  0mm 0 W/m2
04:00 39 °F /  3.9 °C 36.9 °F /  2.7 °C 30.06in /  1017.8hPa Calm     92% 0.00in /  0mm 0 W/m2
04:09 39 °F /  3.9 °C 37.2 °F /  2.9 °C 30.06in /  1017.8hPa Calm     93% 0.00in /  0mm 0 W/m2
04:14 38.9 °F /  3.8 °C 37.1 °F /  2.8 °C 30.06in /  1017.8hPa Calm     93% 0.00in /  0mm 0 W/m2
04:19 38.9 °F /  3.8 °C 37.1 °F /  2.8 °C 30.06in /  1017.8hPa Calm     93% 0.00in /  0mm 0 W/m2
04:24 38.9 °F /  3.8 °C 37.1 °F /  2.8 °C 30.06in /  1017.8hPa Calm     93% 0.00in /  0mm 0 W/m2
04:29 38.9 °F /  3.8 °C 37.1 °F /  2.8 °C 30.06in /  1017.8hPa Calm     93% 0.00in /  0mm 0 W/m2
04:34 38.9 °F /  3.8 °C 37 °F /  2.8 °C 30.06in /  1017.8hPa Calm     93% 0.00in /  0mm 0 W/m2
04:39 38.8 °F /  3.8 °C 37 °F /  2.8 °C 30.06in /  1017.8hPa Calm     93% 0.00in /  0mm 0 W/m2
04:44 38.7 °F /  3.7 °C 36.9 °F /  2.7 °C 30.06in /  1017.8hPa Calm     93% 0.00in /  0mm 0 W/m2
04:49 38.6 °F /  3.7 °C 36.8 °F /  2.7 °C 30.07in /  1018.2hPa Calm     93% 0.00in /  0mm 0 W/m2
04:54 38.6 °F /  3.7 °C 36.8 °F /  2.7 °C 30.06in /  1017.8hPa Calm     93% 0.00in /  0mm 0 W/m2
04:59 38.6 °F /  3.7 °C 36.8 °F /  2.7 °C 30.07in /  1018.2hPa Calm     93% 0.00in /  0mm 0 W/m2
05:04 38.6 °F /  3.7 °C 36.8 °F /  2.7 °C 30.07in /  1018.2hPa Calm     93% 0.00in /  0mm 0 W/m2
05:09 38.6 °F /  3.7 °C 36.8 °F /  2.7 °C 30.07in /  1018.2hPa Calm     93% 0.00in /  0mm 0 W/m2
05:14 38.5 °F /  3.6 °C 36.7 °F /  2.6 °C 30.07in /  1018.2hPa Calm     93% 0.00in /  0mm 0 W/m2
05:19 38.5 °F /  3.6 °C 36.6 °F /  2.6 °C 30.06in /  1017.8hPa Calm     93% 0.00in /  0mm 0 W/m2
05:24 38.4 °F /  3.6 °C 36.6 °F /  2.6 °C 30.06in /  1017.8hPa Calm     93% 0.00in /  0mm 0 W/m2
05:29 38.4 °F /  3.6 °C 36.6 °F /  2.6 °C 30.06in /  1017.8hPa Calm     93% 0.00in /  0mm 0 W/m2
05:34 38.3 °F /  3.5 °C 36.5 °F /  2.5 °C 30.07in /  1018.2hPa Calm     93% 0.00in /  0mm 0 W/m2
05:39 38.3 °F /  3.5 °C 36.5 °F /  2.5 °C 30.07in /  1018.2hPa Calm     93% 0.00in /  0mm 0 W/m2
05:44 38.2 °F /  3.4 °C 36.4 °F /  2.4 °C 30.07in /  1018.2hPa Calm     93% 0.00in /  0mm 0 W/m2
05:49 38.2 °F /  3.4 °C 36.3 °F /  2.4 °C 30.07in /  1018.2hPa Calm     93% 0.00in /  0mm 0 W/m2
05:54 38.1 °F /  3.4 °C 36.2 °F /  2.3 °C 30.07in /  1018.2hPa Calm     93% 0.00in /  0mm 0 W/m2
05:59 38 °F /  3.3 °C 36.2 °F /  2.3 °C 30.07in /  1018.2hPa Calm     93% 0.00in /  0mm 0 W/m2
06:04 37.9 °F /  3.3 °C 36.1 °F /  2.3 °C 30.07in /  1018.2hPa Calm     93.3% 0.00in /  0mm 0 W/m2
06:09 37.9 °F /  3.3 °C 36.3 °F /  2.4 °C 30.07in /  1018.2hPa Calm     94% 0.00in /  0mm 0 W/m2
06:14 37.9 °F /  3.3 °C 36.3 °F /  2.4 °C 30.07in /  1018.2hPa Calm     94% 0.00in /  0mm 0 W/m2
06:19 37.9 °F /  3.3 °C 36.3 °F /  2.4 °C 30.07in /  1018.2hPa Calm     94% 0.00in /  0mm 0 W/m2
06:24 37.8 °F /  3.2 °C 36.3 °F /  2.4 °C 30.07in /  1018.2hPa Calm     94% 0.00in /  0mm 0 W/m2
06:29 37.8 °F /  3.2 °C 36.2 °F /  2.3 °C 30.07in /  1018.2hPa Calm     94% 0.00in /  0mm 0 W/m2
06:34 37.7 °F /  3.2 °C 36.1 °F /  2.3 °C 30.07in /  1018.2hPa Calm     94% 0.00in /  0mm 0 W/m2
06:39 37.7 °F /  3.2 °C 36.1 °F /  2.3 °C 30.07in /  1018.2hPa Calm     94% 0.00in /  0mm 7 W/m2
06:44 37.7 °F /  3.2 °C 36.1 °F /  2.3 °C 30.07in /  1018.2hPa Calm     94% 0.00in /  0mm 9 W/m2
06:49 37.6 °F /  3.1 °C 36.1 °F /  2.3 °C 30.07in /  1018.2hPa Calm     94% 0.00in /  0mm 12 W/m2
06:54 37.7 °F /  3.2 °C 36.1 °F /  2.3 °C 30.07in /  1018.2hPa Calm     94% 0.00in /  0mm 16 W/m2
06:59 37.7 °F /  3.2 °C 36.1 °F /  2.3 °C 30.08in /  1018.5hPa Calm     94% 0.00in /  0mm 23 W/m2
07:04 37.8 °F /  3.2 °C 36.2 °F /  2.3 °C 30.08in /  1018.5hPa Calm     94% 0.00in /  0mm 35 W/m2
07:09 38 °F /  3.3 °C 36.4 °F /  2.4 °C 30.08in /  1018.5hPa Calm     94% 0.00in /  0mm 35 W/m2
07:14 38.4 °F /  3.6 °C 37.1 °F /  2.8 °C 30.08in /  1018.5hPa Calm     94.8% 0.00in /  0mm 35 W/m2
07:19 38.9 °F /  3.8 °C 37.6 °F /  3.1 °C 30.08in /  1018.5hPa Calm     95% 0.00in /  0mm 26 W/m2
07:24 39.3 °F /  4.1 °C 38 °F /  3.3 °C 30.08in /  1018.5hPa Calm     95% 0.00in /  0mm 30 W/m2
07:29 39.5 °F /  4.2 °C 38.2 °F /  3.4 °C 30.09in /  1018.8hPa Calm     95% 0.00in /  0mm 35 W/m2
07:34 39.7 °F /  4.3 °C 38.4 °F /  3.6 °C 30.09in /  1018.8hPa Calm     95% 0.00in /  0mm 54 W/m2
07:39 40 °F /  4.4 °C 38.7 °F /  3.7 °C 30.09in /  1018.8hPa Calm     95% 0.00in /  0mm 54 W/m2
07:44 40.5 °F /  4.7 °C 39.2 °F /  4 °C 30.09in /  1018.8hPa Calm     95% 0.00in /  0mm 53 W/m2
07:49 40.9 °F /  4.9 °C 39.6 °F /  4.2 °C 30.09in /  1018.8hPa Calm     95% 0.00in /  0mm 86 W/m2
07:54 41.3 °F /  5.2 °C 40 °F /  4.4 °C 30.09in /  1018.8hPa Calm     95% 0.00in /  0mm 84 W/m2
07:59 41.8 °F /  5.4 °C 40.5 °F /  4.7 °C 30.09in /  1018.8hPa Calm     95% 0.00in /  0mm 149 W/m2
08:00 42.2 °F /  5.7 °C 40.8 °F /  4.9 °C 30.08in /  1018.5hPa Calm     95% 0.00in /  0mm 146 W/m2
08:09 43 °F /  6.1 °C 41.7 °F /  5.4 °C 30.09in /  1018.8hPa Calm     95% 0.00in /  0mm 195 W/m2
08:14 43.7 °F /  6.5 °C 42.4 °F /  5.8 °C 30.09in /  1018.8hPa Calm     95% 0.00in /  0mm 232 W/m2
08:19 44.5 °F /  6.9 °C 43.2 °F /  6.2 °C 30.09in /  1018.8hPa Calm     95% 0.00in /  0mm 257 W/m2
08:24 45.6 °F /  7.6 °C 44.2 °F /  6.8 °C 30.09in /  1018.8hPa Calm     95% 0.00in /  0mm 267 W/m2
08:29 46.8 °F /  8.2 °C 45.5 °F /  7.5 °C 30.09in /  1018.8hPa Calm     95% 0.00in /  0mm 279 W/m2
08:34 48 °F /  8.9 °C 46.1 °F /  7.8 °C 30.08in /  1018.5hPa Calm     93.1% 0.00in /  0mm 288 W/m2
08:39 48.9 °F /  9.4 °C 45.9 °F /  7.7 °C 30.08in /  1018.5hPa Calm     89.4% 0.00in /  0mm 301 W/m2
08:44 49.7 °F /  9.8 °C 45.6 °F /  7.6 °C 30.08in /  1018.5hPa Calm     85.6% 0.00in /  0mm 311 W/m2
08:49 50.1 °F /  10.1 °C 45.5 °F /  7.5 °C 30.08in /  1018.5hPa Calm     83.9% 0.00in /  0mm 325 W/m2
08:54 50.6 °F /  10.3 °C 45.5 °F /  7.5 °C 30.08in /  1018.5hPa Calm     82.7% 0.00in /  0mm 336 W/m2
08:59 51.1 °F /  10.6 °C 45.6 °F /  7.6 °C 30.08in /  1018.5hPa Calm     81.3% 0.00in /  0mm 350 W/m2
09:04 51.7 °F /  10.9 °C 45.7 °F /  7.6 °C 30.07in /  1018.2hPa Calm     80.1% 0.00in /  0mm 362 W/m2
09:09 52.3 °F /  11.3 °C 45.9 °F /  7.7 °C 30.07in /  1018.2hPa Calm     78.7% 0.00in /  0mm 366 W/m2
09:14 52.6 °F /  11.4 °C 45.7 °F /  7.6 °C 30.07in /  1018.2hPa Calm     77.1% 0.00in /  0mm 352 W/m2
09:19 53 °F /  11.7 °C 45.9 °F /  7.7 °C 30.07in /  1018.2hPa Calm     76.8% 0.00in /  0mm 260 W/m2
09:24 53.4 °F /  11.9 °C 46 °F /  7.8 °C 30.07in /  1018.2hPa Calm     75.8% 0.00in /  0mm 396 W/m2
09:29 53.7 °F /  12.1 °C 45.9 °F /  7.7 °C 30.07in /  1018.2hPa Calm     74.5% 0.00in /  0mm 396 W/m2
09:34 54 °F /  12.2 °C 45.8 °F /  7.7 °C 30.07in /  1018.2hPa Calm     73.9% 0.00in /  0mm 197 W/m2
09:39 53.9 °F /  12.2 °C 45.5 °F /  7.5 °C 30.07in /  1018.2hPa Calm     73% 0.00in /  0mm 153 W/m2
09:44 53.8 °F /  12.1 °C 45.7 °F /  7.6 °C 30.06in /  1017.8hPa Calm     73.9% 0.00in /  0mm 127 W/m2
09:49 53.8 °F /  12.1 °C 45.7 °F /  7.6 °C 30.07in /  1018.2hPa Calm     74% 0.00in /  0mm 213 W/m2
09:54 53.9 °F /  12.2 °C 46.2 °F /  7.9 °C 30.07in /  1018.2hPa Calm     75% 0.00in /  0mm 204 W/m2
09:59 54.2 °F /  12.3 °C 46.2 °F /  7.9 °C 30.07in /  1018.2hPa Calm     74.4% 0.00in /  0mm 225 W/m2
10:04 54.4 °F /  12.4 °C 46 °F /  7.8 °C 30.07in /  1018.2hPa Calm     73.1% 0.00in /  0mm 213 W/m2
10:09 54.8 °F /  12.7 °C 46.7 °F /  8.2 °C 30.07in /  1018.2hPa Calm     74% 0.00in /  0mm 469 W/m2
10:14 55.4 °F /  13 °C 47 °F /  8.3 °C 30.06in /  1017.8hPa Calm     73.3% 0.00in /  0mm 480 W/m2
10:19 56.4 °F /  13.6 °C 47.5 °F /  8.6 °C 30.06in /  1017.8hPa Calm     72.1% 0.00in /  0mm 485 W/m2
10:24 57.4 °F /  14.1 °C 47.5 °F /  8.6 °C 30.05in /  1017.5hPa Calm     69.5% 0.00in /  0mm 492 W/m2
10:29 58.3 °F /  14.6 °C 48 °F /  8.9 °C 30.04in /  1017.2hPa Calm     68.4% 0.00in /  0mm 499 W/m2
10:34 59.2 °F /  15.1 °C 48.3 °F /  9.1 °C 30.05in /  1017.5hPa Calm     66.9% 0.00in /  0mm 499 W/m2
10:39 60 °F /  15.6 °C 48.3 °F /  9.1 °C 30.04in /  1017.2hPa Calm     65% 0.00in /  0mm 485 W/m2
10:44 60.7 °F /  15.9 °C 48 °F /  8.9 °C 30.04in /  1017.2hPa Calm     63% 0.00in /  0mm 512 W/m2
10:49 61.2 °F /  16.2 °C 48.1 °F /  8.9 °C 30.04in /  1017.2hPa NE 0.1mph /  0.2km/h 2mph /  3.2km/h 61.9% 0.00in /  0mm 476 W/m2
10:54 61.6 °F /  16.4 °C 47.9 °F /  8.8 °C 30.04in /  1017.2hPa NE 0.1mph /  0.2km/h 2mph /  3.2km/h 60.8% 0.00in /  0mm 353 W/m2
10:59 61.9 °F /  16.6 °C 47.9 °F /  8.8 °C 30.04in /  1017.2hPa Calm   2mph /  3.2km/h 60.3% 0.00in /  0mm 325 W/m2
11:04 62.1 °F /  16.7 °C 48.1 °F /  8.9 °C 30.04in /  1017.2hPa Calm   2mph /  3.2km/h 60.2% 0.00in /  0mm 408 W/m2
11:09 62.2 °F /  16.8 °C 48.2 °F /  9 °C 30.03in /  1016.8hPa Calm   2mph /  3.2km/h 60% 0.00in /  0mm 512 W/m2
11:14 62.4 °F /  16.9 °C 48 °F /  8.9 °C 30.03in /  1016.8hPa NE 0.1mph /  0.2km/h 2mph /  3.2km/h 59.3% 0.00in /  0mm 487 W/m2
11:19 62.5 °F /  16.9 °C 47.1 °F /  8.4 °C 30.03in /  1016.8hPa NE 0.1mph /  0.2km/h 3mph /  4.8km/h 57.1% 0.00in /  0mm 225 W/m2
11:24 62.5 °F /  16.9 °C 47.5 °F /  8.6 °C 30.03in /  1016.8hPa NE 0.2mph /  0.3km/h 3mph /  4.8km/h 57.9% 0.00in /  0mm 322 W/m2
11:29 62.6 °F /  17 °C 47.1 °F /  8.4 °C 30.03in /  1016.8hPa NE 0.5mph /  0.8km/h 3mph /  4.8km/h 56.8% 0.00in /  0mm 297 W/m2
11:34 62.7 °F /  17.1 °C 47.3 °F /  8.5 °C 30.02in /  1016.5hPa NE 0.1mph /  0.2km/h 3mph /  4.8km/h 57% 0.00in /  0mm 353 W/m2
11:39 63 °F /  17.2 °C 47.8 °F /  8.8 °C 30.02in /  1016.5hPa Calm   2mph /  3.2km/h 57.5% 0.00in /  0mm 408 W/m2
11:44 63.3 °F /  17.4 °C 47.6 °F /  8.7 °C 30.02in /  1016.5hPa Calm   2mph /  3.2km/h 56.5% 0.00in /  0mm 429 W/m2
11:49 63.5 °F /  17.5 °C 48.1 °F /  8.9 °C 30.01in /  1016.1hPa Calm   2mph /  3.2km/h 57.2% 0.00in /  0mm 366 W/m2
11:54 63.8 °F /  17.7 °C 47.8 °F /  8.8 °C 30.01in /  1016.1hPa Calm   2mph /  3.2km/h 56% 0.00in /  0mm 274 W/m2
11:59 64 °F /  17.8 °C 47.7 °F /  8.7 °C 30.01in /  1016.1hPa NE 0.2mph /  0.3km/h 3mph /  4.8km/h 55.3% 0.00in /  0mm 348 W/m2
12:00 64.1 °F /  17.8 °C 47.6 °F /  8.7 °C 30.01in /  1016.1hPa Calm   3mph /  4.8km/h 55% 0.00in /  0mm 62 W/m2
12:09 64.5 °F /  18.1 °C 48.1 °F /  8.9 °C 30.01in /  1016.1hPa Calm   1mph /  1.6km/h 55.2% 0.00in /  0mm 107 W/m2
12:14 64.6 °F /  18.1 °C 47.7 °F /  8.7 °C 30.01in /  1016.1hPa Calm   1mph /  1.6km/h 54.3% 0.00in /  0mm 367 W/m2
12:19 64.7 °F /  18.2 °C 48.3 °F /  9.1 °C 30.01in /  1016.1hPa Calm   1mph /  1.6km/h 55.3% 0.00in /  0mm 418 W/m2
12:24 64.8 °F /  18.2 °C 47.9 °F /  8.8 °C 30.01in /  1016.1hPa Calm   1mph /  1.6km/h 54.2% 0.00in /  0mm 316 W/m2
12:29 65 °F /  18.3 °C 47.9 °F /  8.8 °C 30.01in /  1016.1hPa Calm   1mph /  1.6km/h 53.8% 0.00in /  0mm 141 W/m2
12:34 65.1 °F /  18.4 °C 47.9 °F /  8.8 °C 30.00in /  1015.8hPa Calm   1mph /  1.6km/h 53.8% 0.00in /  0mm 396 W/m2
12:39 65.3 °F /  18.5 °C 48.1 °F /  8.9 °C 30.00in /  1015.8hPa NE 0.2mph /  0.3km/h 2mph /  3.2km/h 53.7% 0.00in /  0mm 373 W/m2
12:44 65.6 °F /  18.7 °C 48.6 °F /  9.2 °C 30.00in /  1015.8hPa NE 0.1mph /  0.2km/h 2mph /  3.2km/h 54.2% 0.00in /  0mm 452 W/m2
12:49 65.8 °F /  18.8 °C 48.5 °F /  9.2 °C 30.00in /  1015.8hPa Calm   2mph /  3.2km/h 53.5% 0.00in /  0mm 452 W/m2
12:54 66 °F /  18.9 °C 48.4 °F /  9.1 °C 29.99in /  1015.5hPa Calm   2mph /  3.2km/h 53% 0.00in /  0mm 74 W/m2
12:59 66.2 °F /  19 °C 48.3 °F /  9.1 °C 29.99in /  1015.5hPa Calm   2mph /  3.2km/h 52.4% 0.00in /  0mm 251 W/m2
13:04 66.4 °F /  19.1 °C 48.6 °F /  9.2 °C 29.99in /  1015.5hPa Calm   2mph /  3.2km/h 52.5% 0.00in /  0mm 232 W/m2
13:09 66.7 °F /  19.3 °C 48.9 °F /  9.4 °C 29.99in /  1015.5hPa Calm     52.8% 0.00in /  0mm 274 W/m2
13:14 66.8 °F /  19.3 °C 48.7 °F /  9.3 °C 29.99in /  1015.5hPa Calm     52% 0.00in /  0mm 403 W/m2
13:19 67.2 °F /  19.6 °C 49 °F /  9.4 °C 29.98in /  1015.1hPa NE 0.1mph /  0.2km/h 3mph /  4.8km/h 52% 0.00in /  0mm 403 W/m2
13:24 67.7 °F /  19.8 °C 49.4 °F /  9.7 °C 29.98in /  1015.1hPa NW 1.3mph /  2.1km/h 6mph /  9.7km/h 52% 0.00in /  0mm 404 W/m2
13:29 68.2 °F /  20.1 °C 49.7 °F /  9.8 °C 29.97in /  1014.8hPa WNW 2.2mph /  3.5km/h 8mph /  12.9km/h 51.7% 0.00in /  0mm 330 W/m2
13:34 68.3 °F /  20.2 °C 49.4 °F /  9.7 °C 29.97in /  1014.8hPa WNW 3.1mph /  5km/h 10mph /  16.1km/h 50.7% 0.00in /  0mm 392 W/m2
13:39 68.4 °F /  20.2 °C 49.6 °F /  9.8 °C 29.97in /  1014.8hPa WNW 1.6mph /  2.6km/h 10mph /  16.1km/h 51% 0.00in /  0mm 279 W/m2
13:44 68.6 °F /  20.3 °C 49.6 °F /  9.8 °C 29.97in /  1014.8hPa NW 1.5mph /  2.4km/h 10mph /  16.1km/h 50.7% 0.00in /  0mm 162 W/m2
13:49 68.7 °F /  20.4 °C 49.6 °F /  9.8 °C 29.97in /  1014.8hPa WNW 1.4mph /  2.3km/h 10mph /  16.1km/h 50.6% 0.00in /  0mm 401 W/m2
13:54 68.9 °F /  20.5 °C 49.8 °F /  9.9 °C 29.97in /  1014.8hPa NW 1.4mph /  2.3km/h 10mph /  16.1km/h 50.6% 0.00in /  0mm 399 W/m2
13:59 69 °F /  20.6 °C 50.1 °F /  10.1 °C 29.97in /  1014.8hPa WSW 1mph /  1.6km/h 10mph /  16.1km/h 50.9% 0.00in /  0mm 244 W/m2
14:04 69.1 °F /  20.6 °C 49.7 °F /  9.8 °C 29.97in /  1014.8hPa WNW 2.5mph /  4km/h 10mph /  16.1km/h 50% 0.00in /  0mm 269 W/m2
14:09 68.8 °F /  20.4 °C 49.5 °F /  9.7 °C 29.96in /  1014.4hPa West 1.3mph /  2.1km/h 9mph /  14.5km/h 50.2% 0.00in /  0mm 93 W/m2
14:14 68.6 °F /  20.3 °C 49.7 °F /  9.8 °C 29.96in /  1014.4hPa NW 3.5mph /  5.6km/h 9mph /  14.5km/h 50.8% 0.00in /  0mm 206 W/m2
14:19 68.4 °F /  20.2 °C 49.3 °F /  9.6 °C 29.96in /  1014.4hPa West 1.5mph /  2.4km/h 9mph /  14.5km/h 50.4% 0.00in /  0mm 172 W/m2
14:24 68.2 °F /  20.1 °C 49.8 °F /  9.9 °C 29.96in /  1014.4hPa WNW 0.7mph /  1.1km/h 9mph /  14.5km/h 51.7% 0.00in /  0mm 193 W/m2
14:29 68.1 °F /  20.1 °C 49.3 °F /  9.6 °C 29.96in /  1014.4hPa WNW 1.9mph /  3.1km/h 9mph /  14.5km/h 51% 0.00in /  0mm 98 W/m2
14:34 67.9 °F /  19.9 °C 49.3 °F /  9.6 °C 29.96in /  1014.4hPa WNW 2.6mph /  4.2km/h 11mph /  17.7km/h 51.3% 0.00in /  0mm 39 W/m2
14:39 67.8 °F /  19.9 °C 49.2 °F /  9.6 °C 29.96in /  1014.4hPa WNW 1.8mph /  2.9km/h 11mph /  17.7km/h 51.5% 0.00in /  0mm 37 W/m2
14:44 67.6 °F /  19.8 °C 49.4 °F /  9.7 °C 29.96in /  1014.4hPa WNW 1.7mph /  2.7km/h 11mph /  17.7km/h 52% 0.00in /  0mm 35 W/m2
14:49 67.5 °F /  19.7 °C 49.3 °F /  9.6 °C 29.96in /  1014.4hPa WNW 2mph /  3.2km/h 11mph /  17.7km/h 52% 0.00in /  0mm 33 W/m2
14:54 67.3 °F /  19.6 °C 49.1 °F /  9.5 °C 29.96in /  1014.4hPa West 3mph /  4.8km/h 11mph /  17.7km/h 52% 0.00in /  0mm 33 W/m2
14:59 67.2 °F /  19.6 °C 49.2 °F /  9.6 °C 29.97in /  1014.8hPa WNW 1.7mph /  2.7km/h 11mph /  17.7km/h 52.3% 0.00in /  0mm 32 W/m2
15:04 67.1 °F /  19.5 °C 49.2 °F /  9.6 °C 29.97in /  1014.8hPa WNW 2.1mph /  3.4km/h 11mph /  17.7km/h 52.7% 0.00in /  0mm 32 W/m2
15:09 67 °F /  19.4 °C 49.3 °F /  9.6 °C 29.98in /  1015.1hPa WNW 4.2mph /  6.8km/h 10mph /  16.1km/h 53% 0.00in /  0mm 30 W/m2
15:14 66.9 °F /  19.4 °C 49.3 °F /  9.6 °C 29.98in /  1015.1hPa WNW 2.6mph /  4.2km/h 10mph /  16.1km/h 53% 0.00in /  0mm 30 W/m2
15:19 66.9 °F /  19.4 °C 49.6 °F /  9.8 °C 29.98in /  1015.1hPa WNW 2.5mph /  4km/h 10mph /  16.1km/h 53.8% 0.00in /  0mm 30 W/m2
15:24 66.8 °F /  19.3 °C 49.3 °F /  9.6 °C 29.98in /  1015.1hPa WNW 4.3mph /  6.9km/h 11mph /  17.7km/h 53.3% 0.00in /  0mm 30 W/m2
15:29 66.7 °F /  19.3 °C 49.3 °F /  9.6 °C 29.98in /  1015.1hPa WNW 4.2mph /  6.8km/h 11mph /  17.7km/h 53.5% 0.00in /  0mm 30 W/m2
15:34 66.5 °F /  19.2 °C 49.2 °F /  9.6 °C 29.98in /  1015.1hPa WNW 2.1mph /  3.4km/h 11mph /  17.7km/h 53.5% 0.00in /  0mm 33 W/m2
15:39 66.4 °F /  19.1 °C 49.3 °F /  9.6 °C 29.98in /  1015.1hPa WNW 2.9mph /  4.7km/h 9mph /  14.5km/h 54% 0.00in /  0mm 32 W/m2
15:44 66.3 °F /  19.1 °C 49.2 °F /  9.6 °C 29.98in /  1015.1hPa WNW 2.9mph /  4.7km/h 10mph /  16.1km/h 54.1% 0.00in /  0mm 28 W/m2
15:49 66.2 °F /  19 °C 49.3 °F /  9.6 °C 29.98in /  1015.1hPa NW 2.8mph /  4.5km/h 10mph /  16.1km/h 54.5% 0.00in /  0mm 21 W/m2
15:54 66 °F /  18.9 °C 49.2 °F /  9.6 °C 29.98in /  1015.1hPa WNW 2.5mph /  4km/h 10mph /  16.1km/h 54.6% 0.00in /  0mm 21 W/m2
15:59 65.9 °F /  18.8 °C 49.3 °F /  9.6 °C 29.98in /  1015.1hPa NW 1mph /  1.6km/h 10mph /  16.1km/h 55% 0.00in /  0mm 18 W/m2
16:00 65.8 °F /  18.8 °C 49.2 °F /  9.6 °C 29.98in /  1015.1hPa Calm   10mph /  16.1km/h 55% 0.00in /  0mm 16 W/m2
16:09 65.5 °F /  18.6 °C 49.3 °F /  9.6 °C 29.98in /  1015.1hPa WNW 1.1mph /  1.8km/h 4mph /  6.4km/h 55.7% 0.00in /  0mm 14 W/m2
16:14 65.2 °F /  18.4 °C 49.2 °F /  9.6 °C 29.98in /  1015.1hPa NW 0.9mph /  1.4km/h 5mph /  8km/h 56% 0.00in /  0mm 12 W/m2
16:19 65 °F /  18.3 °C 49.4 °F /  9.7 °C 29.98in /  1015.1hPa WNW 0.7mph /  1.1km/h 5mph /  8km/h 57% 0.00in /  0mm 12 W/m2
16:24 64.8 °F /  18.2 °C 49.2 °F /  9.6 °C 29.98in /  1015.1hPa NW 1mph /  1.6km/h 5mph /  8km/h 57% 0.00in /  0mm 9 W/m2
16:29 64.5 °F /  18.1 °C 49.1 °F /  9.5 °C 29.98in /  1015.1hPa WNW 0.7mph /  1.1km/h 5mph /  8km/h 57.4% 0.00in /  0mm 5 W/m2
16:34 64.2 °F /  17.9 °C 49.2 °F /  9.6 °C 29.98in /  1015.1hPa WNW 0.6mph /  1km/h 5mph /  8km/h 58.2% 0.00in /  0mm 0 W/m2
16:39 64 °F /  17.8 °C 49.1 °F /  9.5 °C 29.98in /  1015.1hPa NW 2.2mph /  3.5km/h 7mph /  11.3km/h 58.5% 0.00in /  0mm 0 W/m2
16:44 63.7 °F /  17.6 °C 49.1 °F /  9.5 °C 29.98in /  1015.1hPa WNW 1.5mph /  2.4km/h 7mph /  11.3km/h 59% 0.00in /  0mm 0 W/m2
16:49 63.5 °F /  17.5 °C 49 °F /  9.4 °C 29.99in /  1015.5hPa WNW 1.1mph /  1.8km/h 7mph /  11.3km/h 59.3% 0.00in /  0mm 0 W/m2
16:54 63.3 °F /  17.4 °C 49.1 °F /  9.5 °C 29.99in /  1015.5hPa WNW 0.7mph /  1.1km/h 7mph /  11.3km/h 60% 0.00in /  0mm 0 W/m2
16:59 63.1 °F /  17.3 °C 49 °F /  9.4 °C 29.99in /  1015.5hPa WNW 0.1mph /  0.2km/h 7mph /  11.3km/h 60% 0.00in /  0mm 0 W/m2
17:04 62.9 °F /  17.2 °C 48.8 °F /  9.3 °C 29.99in /  1015.5hPa Calm   7mph /  11.3km/h 60% 0.00in /  0mm 0 W/m2
17:09 62.7 °F /  17.1 °C 48.7 °F /  9.3 °C 30.00in /  1015.8hPa Calm   1mph /  1.6km/h 60.3% 0.00in /  0mm 0 W/m2
17:14 62.5 °F /  16.9 °C 48.9 °F /  9.4 °C 29.99in /  1015.5hPa Calm   1mph /  1.6km/h 61% 0.00in /  0mm 0 W/m2
17:19 62.3 °F /  16.8 °C 48.7 °F /  9.3 °C 30.00in /  1015.8hPa Calm   1mph /  1.6km/h 61% 0.00in /  0mm 0 W/m2
17:24 62.1 °F /  16.7 °C 48.6 °F /  9.2 °C 30.00in /  1015.8hPa Calm   1mph /  1.6km/h 61.3% 0.00in /  0mm 0 W/m2
17:29 61.8 °F /  16.6 °C 48.7 °F /  9.3 °C 30.00in /  1015.8hPa Calm   1mph /  1.6km/h 62% 0.00in /  0mm 0 W/m2
17:34 61.7 °F /  16.5 °C 48.6 °F /  9.2 °C 30.00in /  1015.8hPa WNW 0.3mph /  0.5km/h 3mph /  4.8km/h 62.1% 0.00in /  0mm 0 W/m2
17:39 61.5 °F /  16.4 °C 48.8 °F /  9.3 °C 30.00in /  1015.8hPa WNW 0.4mph /  0.6km/h 4mph /  6.4km/h 63% 0.00in /  0mm 0 W/m2
17:44 61.3 °F /  16.3 °C 48.6 °F /  9.2 °C 29.99in /  1015.5hPa WNW 0.4mph /  0.6km/h 4mph /  6.4km/h 63% 0.00in /  0mm 0 W/m2
17:47 61.1 °F /  16.2 °C 48.4 °F /  9.1 °C 29.99in /  1015.5hPa Calm   4mph /  6.4km/h 63% 0.00in /  0mm 0 W/m2
18:00 60.5 °F /  15.8 °C 48.7 °F /  9.3 °C 29.99in /  1015.5hPa Calm   4mph /  6.4km/h 65% 0.00in /  0mm 0 W/m2
18:30 59.6 °F /  15.3 °C 48.2 °F /  9 °C 30.00in /  1015.8hPa Calm   6mph /  9.7km/h 66% 0.00in /  0mm 0 W/m2
19:00 58.9 °F /  14.9 °C 48 °F /  8.9 °C 30.00in /  1015.8hPa Calm   4mph /  6.4km/h 67% 0.00in /  0mm 0 W/m2
19:30 59.3 °F /  15.2 °C 48.4 °F /  9.1 °C 30.00in /  1015.8hPa Calm   5mph /  8km/h 67% 0.00in /  0mm 0 W/m2
20:04 59.9 °F /  15.5 °C 49.3 °F /  9.6 °C 30.00in /  1015.8hPa Calm   5mph /  8km/h 67.8% 0.00in /  0mm 0 W/m2
20:09 60 °F /  15.6 °C 49.2 °F /  9.6 °C 30.00in /  1015.8hPa Calm   1mph /  1.6km/h 67.3% 0.00in /  0mm 0 W/m2
20:14 60.1 °F /  15.6 °C 49.1 °F /  9.5 °C 30.00in /  1015.8hPa West 0.2mph /  0.3km/h 2mph /  3.2km/h 67% 0.00in /  0mm 0 W/m2
20:19 60.1 °F /  15.6 °C 49.2 °F /  9.6 °C 30.00in /  1015.8hPa Calm   2mph /  3.2km/h 67% 0.00in /  0mm 0 W/m2
20:24 60.2 °F /  15.7 °C 49.2 °F /  9.6 °C 30.01in /  1016.1hPa Calm   2mph /  3.2km/h 67% 0.00in /  0mm 0 W/m2
20:29 60.2 °F /  15.7 °C 49.2 °F /  9.6 °C 30.01in /  1016.1hPa Calm   2mph /  3.2km/h 67% 0.00in /  0mm 0 W/m2
20:34 60.2 °F /  15.7 °C 49.2 °F /  9.6 °C 30.00in /  1015.8hPa West 0.4mph /  0.6km/h 2mph /  3.2km/h 67% 0.00in /  0mm 0 W/m2
20:39 60 °F /  15.6 °C 49.1 °F /  9.5 °C 30.00in /  1015.8hPa West 0.3mph /  0.5km/h 2mph /  3.2km/h 67% 0.00in /  0mm 0 W/m2
20:44 59.9 °F /  15.5 °C 48.9 °F /  9.4 °C 30.00in /  1015.8hPa Calm   2mph /  3.2km/h 67% 0.00in /  0mm 0 W/m2
20:49 59.7 °F /  15.4 °C 48.8 °F /  9.3 °C 30.00in /  1015.8hPa West 0.3mph /  0.5km/h 3mph /  4.8km/h 67% 0.00in /  0mm 0 W/m2
20:54 59.5 °F /  15.3 °C 48.6 °F /  9.2 °C 30.00in /  1015.8hPa West 0.3mph /  0.5km/h 3mph /  4.8km/h 67% 0.00in /  0mm 0 W/m2
20:59 59.4 °F /  15.2 °C 48.5 °F /  9.2 °C 30.00in /  1015.8hPa West 0.1mph /  0.2km/h 3mph /  4.8km/h 67.1% 0.00in /  0mm 0 W/m2
21:04 59.2 °F /  15.1 °C 48.6 °F /  9.2 °C 30.00in /  1015.8hPa West 0.1mph /  0.2km/h 3mph /  4.8km/h 67.7% 0.00in /  0mm 0 W/m2
21:09 59.1 °F /  15.1 °C 48.6 °F /  9.2 °C 30.00in /  1015.8hPa West 0.3mph /  0.5km/h 2mph /  3.2km/h 68% 0.00in /  0mm 0 W/m2
21:14 59 °F /  15 °C 48.7 °F /  9.3 °C 30.00in /  1015.8hPa Calm   2mph /  3.2km/h 68.7% 0.00in /  0mm 0 W/m2
21:19 58.8 °F /  14.9 °C 48.7 °F /  9.3 °C 30.00in /  1015.8hPa West 0.2mph /  0.3km/h 2mph /  3.2km/h 69% 0.00in /  0mm 0 W/m2
21:24 58.6 °F /  14.8 °C 48.8 °F /  9.3 °C 30.00in /  1015.8hPa West 0.5mph /  0.8km/h 3mph /  4.8km/h 69.8% 0.00in /  0mm 0 W/m2
21:29 58.5 °F /  14.7 °C 48.7 °F /  9.3 °C 30.00in /  1015.8hPa West 0.4mph /  0.6km/h 5mph /  8km/h 70% 0.00in /  0mm 0 W/m2
21:34 58.3 °F /  14.6 °C 48.6 °F /  9.2 °C 30.00in /  1015.8hPa West 0.4mph /  0.6km/h 5mph /  8km/h 70% 0.00in /  0mm 0 W/m2
21:39 58.1 °F /  14.5 °C 48.6 °F /  9.2 °C 30.00in /  1015.8hPa West 0.5mph /  0.8km/h 3mph /  4.8km/h 70.6% 0.00in /  0mm 0 W/m2
21:44 58 °F /  14.4 °C 48.7 °F /  9.3 °C 30.00in /  1015.8hPa West 0.2mph /  0.3km/h 3mph /  4.8km/h 71% 0.00in /  0mm 0 W/m2
21:49 57.9 °F /  14.4 °C 48.6 °F /  9.2 °C 30.00in /  1015.8hPa West 0.2mph /  0.3km/h 3mph /  4.8km/h 71% 0.00in /  0mm 0 W/m2
21:54 57.8 °F /  14.3 °C 48.5 °F /  9.2 °C 30.00in /  1015.8hPa Calm   3mph /  4.8km/h 71% 0.00in /  0mm 0 W/m2
21:59 57.7 °F /  14.3 °C 48.7 °F /  9.3 °C 30.00in /  1015.8hPa Calm   3mph /  4.8km/h 71.8% 0.00in /  0mm 0 W/m2
22:04 57.6 °F /  14.2 °C 48.7 °F /  9.3 °C 29.99in /  1015.5hPa Calm   3mph /  4.8km/h 72% 0.00in /  0mm 0 W/m2
22:09 57.5 °F /  14.2 °C 48.6 °F /  9.2 °C 29.99in /  1015.5hPa Calm   1mph /  1.6km/h 72% 0.00in /  0mm 0 W/m2
22:14 57.4 °F /  14.1 °C 48.4 °F /  9.1 °C 29.99in /  1015.5hPa Calm   1mph /  1.6km/h 72% 0.00in /  0mm 0 W/m2
22:19 57.3 °F /  14.1 °C 48.4 °F /  9.1 °C 29.99in /  1015.5hPa Calm   1mph /  1.6km/h 72% 0.00in /  0mm 0 W/m2
22:24 57.3 °F /  14.1 °C 48.4 °F /  9.1 °C 29.98in /  1015.1hPa Calm   1mph /  1.6km/h 72% 0.00in /  0mm 0 W/m2
22:29 57.2 °F /  14 °C 48.3 °F /  9.1 °C 29.98in /  1015.1hPa Calm   1mph /  1.6km/h 72% 0.00in /  0mm 0 W/m2
22:34 57.2 °F /  14 °C 48.3 °F /  9.1 °C 29.98in /  1015.1hPa Calm   1mph /  1.6km/h 72% 0.00in /  0mm 0 W/m2
22:39 57.1 °F /  13.9 °C 48.2 °F /  9 °C 29.98in /  1015.1hPa Calm     72% 0.00in /  0mm 0 W/m2
22:44 57.1 °F /  13.9 °C 48.3 °F /  9.1 °C 29.98in /  1015.1hPa Calm     72.4% 0.00in /  0mm 0 W/m2
22:49 56.9 °F /  13.8 °C 48.1 °F /  8.9 °C 29.98in /  1015.1hPa Calm     72.2% 0.00in /  0mm 0 W/m2
22:54 56.8 °F /  13.8 °C 48.1 °F /  8.9 °C 29.98in /  1015.1hPa West 0.4mph /  0.6km/h 2mph /  3.2km/h 72.4% 0.00in /  0mm 0 W/m2
22:59 56.7 °F /  13.7 °C 48.2 °F /  9 °C 29.98in /  1015.1hPa Calm   2mph /  3.2km/h 73% 0.00in /  0mm 0 W/m2
23:09 56.3 °F /  13.5 °C 48.2 °F /  9 °C 29.98in /  1015.1hPa West 0.2mph /  0.3km/h 2mph /  3.2km/h 74% 0.00in /  0mm 0 W/m2
23:14 56.2 °F /  13.4 °C 48 °F /  8.9 °C 29.98in /  1015.1hPa Calm   2mph /  3.2km/h 74% 0.00in /  0mm 0 W/m2
23:19 56 °F /  13.3 °C 47.9 °F /  8.8 °C 29.98in /  1015.1hPa Calm   2mph /  3.2km/h 74% 0.00in /  0mm 0 W/m2
23:24 55.9 °F /  13.3 °C 47.8 °F /  8.8 °C 29.98in /  1015.1hPa Calm   2mph /  3.2km/h 74% 0.00in /  0mm 0 W/m2
23:29 55.9 °F /  13.3 °C 47.7 °F /  8.7 °C 29.98in /  1015.1hPa Calm   2mph /  3.2km/h 74% 0.00in /  0mm 0 W/m2
23:34 55.8 °F /  13.2 °C 48 °F /  8.9 °C 29.98in /  1015.1hPa West 0.1mph /  0.2km/h 2mph /  3.2km/h 75% 0.00in /  0mm 0 W/m2
23:39 55.7 °F /  13.2 °C 47.9 °F /  8.8 °C 29.98in /  1015.1hPa West 1.3mph /  2.1km/h 6mph /  9.7km/h 75% 0.00in /  0mm 0 W/m2
23:44 55.8 °F /  13.2 °C 48 °F /  8.9 °C 29.98in /  1015.1hPa West 0.3mph /  0.5km/h 6mph /  9.7km/h 75% 0.00in /  0mm 0 W/m2
23:49 55.9 °F /  13.3 °C 48.1 °F /  8.9 °C 29.98in /  1015.1hPa West 0.7mph /  1.1km/h 6mph /  9.7km/h 75% 0.00in /  0mm 0 W/m2
23:54 56 °F /  13.3 °C 47.9 °F /  8.8 °C 29.98in /  1015.1hPa West 0.1mph /  0.2km/h 6mph /  9.7km/h 74.3% 0.00in /  0mm 0 W/m2
23:59 56 °F /  13.3 °C 47.8 °F /  8.8 °C 29.98in /  1015.1hPa Calm   6mph /  9.7km/h 74% 0.00in /  0mm 0 W/m2
Hartford County Weather
Compliments of Weather Underground - 2 mb